sensor_id;sensor_type;location;lat;lon;timestamp;P1;durP1;ratioP1;P2;durP2;ratioP2
61617;SDS011;47518;51.776;9.370;2023-01-29T00:02:03;35.15;;;21.60;;
61617;SDS011;47518;51.776;9.370;2023-01-29T00:04:29;35.30;;;20.90;;
61617;SDS011;47518;51.776;9.370;2023-01-29T00:06:55;34.50;;;20.60;;
61617;SDS011;47518;51.776;9.370;2023-01-29T00:09:20;31.95;;;20.33;;
61617;SDS011;47518;51.776;9.370;2023-01-29T00:11:46;34.05;;;20.40;;
61617;SDS011;47518;51.776;9.370;2023-01-29T00:14:11;34.13;;;21.20;;
61617;SDS011;47518;51.776;9.370;2023-01-29T00:16:37;34.63;;;21.48;;
61617;SDS011;47518;51.776;9.370;2023-01-29T00:19:02;36.05;;;21.42;;
61617;SDS011;47518;51.776;9.370;2023-01-29T00:21:28;37.83;;;21.83;;
61617;SDS011;47518;51.776;9.370;2023-01-29T00:23:55;36.47;;;22.05;;
61617;SDS011;47518;51.776;9.370;2023-01-29T00:26:21;33.92;;;20.48;;
61617;SDS011;47518;51.776;9.370;2023-01-29T00:28:46;31.35;;;20.23;;
61617;SDS011;47518;51.776;9.370;2023-01-29T00:31:14;31.30;;;19.45;;
61617;SDS011;47518;51.776;9.370;2023-01-29T00:33:47;32.33;;;20.23;;
61617;SDS011;47518;51.776;9.370;2023-01-29T00:36:14;33.42;;;20.05;;
61617;SDS011;47518;51.776;9.370;2023-01-29T00:38:41;34.95;;;20.30;;
61617;SDS011;47518;51.776;9.370;2023-01-29T00:41:09;33.70;;;19.63;;
61617;SDS011;47518;51.776;9.370;2023-01-29T00:54:15;35.60;;;20.27;;
61617;SDS011;47518;51.776;9.370;2023-01-29T00:56:40;32.78;;;19.92;;
61617;SDS011;47518;51.776;9.370;2023-01-29T00:59:06;32.88;;;19.58;;
61617;SDS011;47518;51.776;9.370;2023-01-29T01:01:31;35.95;;;20.58;;
61617;SDS011;47518;51.776;9.370;2023-01-29T01:04:16;35.35;;;21.42;;
61617;SDS011;47518;51.776;9.370;2023-01-29T01:06:42;33.63;;;20.38;;
61617;SDS011;47518;51.776;9.370;2023-01-29T01:09:08;36.65;;;20.95;;
61617;SDS011;47518;51.776;9.370;2023-01-29T01:11:54;32.38;;;20.08;;
61617;SDS011;47518;51.776;9.370;2023-01-29T01:14:20;32.23;;;20.00;;
61617;SDS011;47518;51.776;9.370;2023-01-29T01:16:46;32.13;;;19.58;;
61617;SDS011;47518;51.776;9.370;2023-01-29T01:19:12;33.28;;;20.17;;
61617;SDS011;47518;51.776;9.370;2023-01-29T01:21:39;35.10;;;20.77;;
61617;SDS011;47518;51.776;9.370;2023-01-29T01:24:04;35.72;;;20.83;;
61617;SDS011;47518;51.776;9.370;2023-01-29T01:26:31;34.30;;;20.67;;
61617;SDS011;47518;51.776;9.370;2023-01-29T01:28:57;36.55;;;20.38;;
61617;SDS011;47518;51.776;9.370;2023-01-29T01:31:23;36.42;;;20.70;;
61617;SDS011;47518;51.776;9.370;2023-01-29T01:33:48;32.70;;;19.75;;
61617;SDS011;47518;51.776;9.370;2023-01-29T01:36:15;36.72;;;21.23;;
61617;SDS011;47518;51.776;9.370;2023-01-29T01:38:41;34.83;;;20.25;;
61617;SDS011;47518;51.776;9.370;2023-01-29T01:41:11;36.30;;;20.67;;
61617;SDS011;47518;51.776;9.370;2023-01-29T01:43:54;33.97;;;20.48;;
61617;SDS011;47518;51.776;9.370;2023-01-29T01:46:21;36.20;;;20.60;;
61617;SDS011;47518;51.776;9.370;2023-01-29T01:48:50;35.80;;;20.73;;
61617;SDS011;47518;51.776;9.370;2023-01-29T01:51:20;37.33;;;21.13;;
61617;SDS011;47518;51.776;9.370;2023-01-29T01:53:49;36.77;;;21.30;;
61617;SDS011;47518;51.776;9.370;2023-01-29T01:56:22;36.15;;;20.45;;
61617;SDS011;47518;51.776;9.370;2023-01-29T01:58:53;34.35;;;20.23;;
61617;SDS011;47518;51.776;9.370;2023-01-29T02:01:20;36.40;;;20.07;;
61617;SDS011;47518;51.776;9.370;2023-01-29T02:03:58;36.53;;;20.80;;
61617;SDS011;47518;51.776;9.370;2023-01-29T02:06:48;36.25;;;19.55;;
61617;SDS011;47518;51.776;9.370;2023-01-29T02:09:52;33.25;;;19.85;;
61617;SDS011;47518;51.776;9.370;2023-01-29T02:12:24;33.37;;;19.00;;
61617;SDS011;47518;51.776;9.370;2023-01-29T02:14:50;34.23;;;20.07;;
61617;SDS011;47518;51.776;9.370;2023-01-29T02:17:16;32.83;;;19.55;;
61617;SDS011;47518;51.776;9.370;2023-01-29T02:19:49;35.27;;;20.73;;
61617;SDS011;47518;51.776;9.370;2023-01-29T02:22:23;34.40;;;20.20;;
61617;SDS011;47518;51.776;9.370;2023-01-29T02:28:06;35.30;;;20.50;;
61617;SDS011;47518;51.776;9.370;2023-01-29T02:30:58;35.17;;;20.65;;
61617;SDS011;47518;51.776;9.370;2023-01-29T02:39:23;38.23;;;21.10;;
61617;SDS011;47518;51.776;9.370;2023-01-29T03:06:14;36.00;;;19.77;;
61617;SDS011;47518;51.776;9.370;2023-01-29T03:08:49;38.40;;;19.83;;
61617;SDS011;47518;51.776;9.370;2023-01-29T03:11:19;36.33;;;21.10;;
61617;SDS011;47518;51.776;9.370;2023-01-29T03:13:47;37.50;;;19.90;;
61617;SDS011;47518;51.776;9.370;2023-01-29T03:19:22;36.65;;;20.40;;
61617;SDS011;47518;51.776;9.370;2023-01-29T03:21:54;37.72;;;20.92;;
61617;SDS011;47518;51.776;9.370;2023-01-29T03:24:40;37.93;;;22.17;;
61617;SDS011;47518;51.776;9.370;2023-01-29T03:27:32;36.33;;;20.67;;
61617;SDS011;47518;51.776;9.370;2023-01-29T03:30:21;35.65;;;20.40;;
61617;SDS011;47518;51.776;9.370;2023-01-29T03:33:11;36.23;;;20.63;;
61617;SDS011;47518;51.776;9.370;2023-01-29T03:35:41;36.13;;;20.75;;
61617;SDS011;47518;51.776;9.370;2023-01-29T03:38:13;34.50;;;20.15;;
61617;SDS011;47518;51.776;9.370;2023-01-29T03:40:56;35.00;;;20.13;;
61617;SDS011;47518;51.776;9.370;2023-01-29T03:43:37;37.72;;;21.20;;
61617;SDS011;47518;51.776;9.370;2023-01-29T03:46:09;38.25;;;20.85;;
61617;SDS011;47518;51.776;9.370;2023-01-29T03:51:34;36.13;;;20.73;;
61617;SDS011;47518;51.776;9.370;2023-01-29T03:54:13;39.28;;;21.25;;
61617;SDS011;47518;51.776;9.370;2023-01-29T04:09:51;38.00;;;20.50;;
61617;SDS011;47518;51.776;9.370;2023-01-29T04:12:23;38.97;;;21.88;;
61617;SDS011;47518;51.776;9.370;2023-01-29T04:14:53;38.70;;;21.30;;
61617;SDS011;47518;51.776;9.370;2023-01-29T04:17:22;40.40;;;20.77;;
61617;SDS011;47518;51.776;9.370;2023-01-29T04:19:53;38.83;;;21.15;;
61617;SDS011;47518;51.776;9.370;2023-01-29T04:22:21;39.17;;;21.58;;
61617;SDS011;47518;51.776;9.370;2023-01-29T04:24:50;38.50;;;22.02;;
61617;SDS011;47518;51.776;9.370;2023-01-29T04:40:31;40.38;;;21.25;;
61617;SDS011;47518;51.776;9.370;2023-01-29T04:43:08;39.65;;;21.90;;
61617;SDS011;47518;51.776;9.370;2023-01-29T04:45:49;39.38;;;20.65;;
61617;SDS011;47518;51.776;9.370;2023-01-29T04:48:43;38.58;;;21.33;;
61617;SDS011;47518;51.776;9.370;2023-01-29T04:51:18;40.88;;;21.98;;
61617;SDS011;47518;51.776;9.370;2023-01-29T04:56:41;43.35;;;21.80;;
61617;SDS011;47518;51.776;9.370;2023-01-29T04:59:35;44.47;;;22.75;;
61617;SDS011;47518;51.776;9.370;2023-01-29T05:02:06;38.97;;;21.25;;
61617;SDS011;47518;51.776;9.370;2023-01-29T05:04:33;42.20;;;21.70;;
61617;SDS011;47518;51.776;9.370;2023-01-29T05:07:03;40.33;;;21.35;;
61617;SDS011;47518;51.776;9.370;2023-01-29T05:09:33;38.67;;;20.27;;
61617;SDS011;47518;51.776;9.370;2023-01-29T05:12:00;38.70;;;20.60;;
61617;SDS011;47518;51.776;9.370;2023-01-29T05:39:43;37.05;;;23.17;;
61617;SDS011;47518;51.776;9.370;2023-01-29T05:42:08;37.72;;;22.23;;
61617;SDS011;47518;51.776;9.370;2023-01-29T05:44:33;34.85;;;20.10;;
61617;SDS011;47518;51.776;9.370;2023-01-29T05:46:58;36.67;;;20.45;;
61617;SDS011;47518;51.776;9.370;2023-01-29T05:49:26;36.45;;;20.00;;
61617;SDS011;47518;51.776;9.370;2023-01-29T05:51:51;37.20;;;19.55;;
61617;SDS011;47518;51.776;9.370;2023-01-29T05:54:17;35.15;;;19.15;;
61617;SDS011;47518;51.776;9.370;2023-01-29T05:56:42;39.13;;;19.15;;
61617;SDS011;47518;51.776;9.370;2023-01-29T05:59:07;38.40;;;19.25;;
61617;SDS011;47518;51.776;9.370;2023-01-29T06:01:33;33.92;;;17.27;;
61617;SDS011;47518;51.776;9.370;2023-01-29T06:03:58;36.00;;;18.23;;
61617;SDS011;47518;51.776;9.370;2023-01-29T06:06:23;37.97;;;18.38;;
61617;SDS011;47518;51.776;9.370;2023-01-29T06:08:49;35.53;;;17.83;;
61617;SDS011;47518;51.776;9.370;2023-01-29T06:11:16;37.95;;;18.92;;
61617;SDS011;47518;51.776;9.370;2023-01-29T06:13:42;36.17;;;18.45;;
61617;SDS011;47518;51.776;9.370;2023-01-29T06:16:08;34.60;;;18.00;;
61617;SDS011;47518;51.776;9.370;2023-01-29T06:18:34;36.05;;;18.13;;
61617;SDS011;47518;51.776;9.370;2023-01-29T06:21:01;36.22;;;17.50;;
61617;SDS011;47518;51.776;9.370;2023-01-29T06:23:27;36.88;;;17.60;;
61617;SDS011;47518;51.776;9.370;2023-01-29T06:25:52;35.78;;;16.77;;
61617;SDS011;47518;51.776;9.370;2023-01-29T06:28:18;34.40;;;17.75;;
61617;SDS011;47518;51.776;9.370;2023-01-29T06:30:43;37.28;;;18.08;;
61617;SDS011;47518;51.776;9.370;2023-01-29T06:33:08;34.33;;;16.95;;
61617;SDS011;47518;51.776;9.370;2023-01-29T06:35:33;35.00;;;17.10;;
61617;SDS011;47518;51.776;9.370;2023-01-29T06:37:59;33.97;;;17.90;;
61617;SDS011;47518;51.776;9.370;2023-01-29T06:40:24;33.13;;;16.67;;
61617;SDS011;47518;51.776;9.370;2023-01-29T06:42:50;38.03;;;18.23;;
61617;SDS011;47518;51.776;9.370;2023-01-29T06:45:15;33.35;;;17.27;;
61617;SDS011;47518;51.776;9.370;2023-01-29T06:47:40;37.63;;;17.58;;
61617;SDS011;47518;51.776;9.370;2023-01-29T06:50:06;35.72;;;17.98;;
61617;SDS011;47518;51.776;9.370;2023-01-29T06:52:31;37.83;;;17.83;;
61617;SDS011;47518;51.776;9.370;2023-01-29T06:54:56;37.22;;;18.27;;
61617;SDS011;47518;51.776;9.370;2023-01-29T06:57:22;37.05;;;18.35;;
61617;SDS011;47518;51.776;9.370;2023-01-29T06:59:47;34.53;;;17.80;;
61617;SDS011;47518;51.776;9.370;2023-01-29T07:02:13;40.72;;;18.30;;
61617;SDS011;47518;51.776;9.370;2023-01-29T07:04:38;34.22;;;17.17;;
61617;SDS011;47518;51.776;9.370;2023-01-29T07:07:05;32.83;;;17.67;;
61617;SDS011;47518;51.776;9.370;2023-01-29T07:09:37;39.60;;;17.77;;
61617;SDS011;47518;51.776;9.370;2023-01-29T07:12:03;34.30;;;17.52;;
61617;SDS011;47518;51.776;9.370;2023-01-29T07:14:29;35.10;;;17.48;;
61617;SDS011;47518;51.776;9.370;2023-01-29T07:16:54;38.25;;;18.17;;
61617;SDS011;47518;51.776;9.370;2023-01-29T07:19:19;35.92;;;17.90;;
61617;SDS011;47518;51.776;9.370;2023-01-29T07:21:45;35.67;;;17.77;;
61617;SDS011;47518;51.776;9.370;2023-01-29T07:24:10;33.90;;;16.75;;
61617;SDS011;47518;51.776;9.370;2023-01-29T07:26:35;33.03;;;16.63;;
61617;SDS011;47518;51.776;9.370;2023-01-29T07:29:00;34.92;;;17.52;;
61617;SDS011;47518;51.776;9.370;2023-01-29T07:31:26;36.50;;;17.48;;
61617;SDS011;47518;51.776;9.370;2023-01-29T07:33:51;35.10;;;17.60;;
61617;SDS011;47518;51.776;9.370;2023-01-29T07:36:16;35.20;;;17.20;;
61617;SDS011;47518;51.776;9.370;2023-01-29T07:38:42;36.97;;;17.15;;
61617;SDS011;47518;51.776;9.370;2023-01-29T07:41:08;35.15;;;18.40;;
61617;SDS011;47518;51.776;9.370;2023-01-29T07:43:35;35.10;;;17.23;;
61617;SDS011;47518;51.776;9.370;2023-01-29T07:46:00;34.17;;;16.90;;
61617;SDS011;47518;51.776;9.370;2023-01-29T07:48:27;34.92;;;17.75;;
61617;SDS011;47518;51.776;9.370;2023-01-29T07:50:53;37.03;;;17.95;;
61617;SDS011;47518;51.776;9.370;2023-01-29T07:53:20;35.58;;;17.58;;
61617;SDS011;47518;51.776;9.370;2023-01-29T07:55:45;34.95;;;17.30;;
61617;SDS011;47518;51.776;9.370;2023-01-29T07:58:10;35.92;;;17.33;;
61617;SDS011;47518;51.776;9.370;2023-01-29T08:00:36;31.70;;;16.40;;
61617;SDS011;47518;51.776;9.370;2023-01-29T08:03:03;34.33;;;17.23;;
61617;SDS011;47518;51.776;9.370;2023-01-29T08:05:29;35.17;;;17.38;;
61617;SDS011;47518;51.776;9.370;2023-01-29T08:07:58;36.72;;;17.80;;
61617;SDS011;47518;51.776;9.370;2023-01-29T08:10:23;31.60;;;16.35;;
61617;SDS011;47518;51.776;9.370;2023-01-29T08:12:53;33.90;;;17.08;;
61617;SDS011;47518;51.776;9.370;2023-01-29T08:15:19;33.88;;;16.75;;
61617;SDS011;47518;51.776;9.370;2023-01-29T08:17:45;30.75;;;16.23;;
61617;SDS011;47518;51.776;9.370;2023-01-29T08:20:10;31.85;;;16.52;;
61617;SDS011;47518;51.776;9.370;2023-01-29T08:22:36;32.58;;;16.92;;
61617;SDS011;47518;51.776;9.370;2023-01-29T08:25:01;32.13;;;16.73;;
61617;SDS011;47518;51.776;9.370;2023-01-29T08:27:26;31.67;;;16.20;;
61617;SDS011;47518;51.776;9.370;2023-01-29T08:29:51;31.50;;;15.38;;
61617;SDS011;47518;51.776;9.370;2023-01-29T08:32:17;29.15;;;15.57;;
61617;SDS011;47518;51.776;9.370;2023-01-29T08:34:42;31.77;;;15.85;;
61617;SDS011;47518;51.776;9.370;2023-01-29T08:37:07;29.77;;;15.88;;
61617;SDS011;47518;51.776;9.370;2023-01-29T08:39:33;32.70;;;16.30;;
61617;SDS011;47518;51.776;9.370;2023-01-29T08:41:58;27.25;;;15.30;;
61617;SDS011;47518;51.776;9.370;2023-01-29T08:44:23;29.65;;;15.95;;
61617;SDS011;47518;51.776;9.370;2023-01-29T08:46:48;29.05;;;15.00;;
61617;SDS011;47518;51.776;9.370;2023-01-29T08:49:14;30.90;;;16.05;;
61617;SDS011;47518;51.776;9.370;2023-01-29T08:51:39;29.02;;;15.02;;
61617;SDS011;47518;51.776;9.370;2023-01-29T08:54:04;32.53;;;15.60;;
61617;SDS011;47518;51.776;9.370;2023-01-29T08:56:30;30.63;;;15.82;;
61617;SDS011;47518;51.776;9.370;2023-01-29T08:58:55;28.83;;;14.90;;
61617;SDS011;47518;51.776;9.370;2023-01-29T09:01:20;30.45;;;16.52;;
61617;SDS011;47518;51.776;9.370;2023-01-29T09:03:45;30.48;;;16.35;;
61617;SDS011;47518;51.776;9.370;2023-01-29T09:06:11;31.55;;;16.83;;
61617;SDS011;47518;51.776;9.370;2023-01-29T09:08:38;31.13;;;15.85;;
61617;SDS011;47518;51.776;9.370;2023-01-29T09:11:04;27.80;;;15.32;;
61617;SDS011;47518;51.776;9.370;2023-01-29T09:13:30;27.15;;;15.48;;
61617;SDS011;47518;51.776;9.370;2023-01-29T09:15:59;30.50;;;15.35;;
61617;SDS011;47518;51.776;9.370;2023-01-29T09:18:25;27.38;;;15.23;;
61617;SDS011;47518;51.776;9.370;2023-01-29T09:20:50;27.73;;;14.57;;
61617;SDS011;47518;51.776;9.370;2023-01-29T09:23:17;28.98;;;15.02;;
61617;SDS011;47518;51.776;9.370;2023-01-29T09:25:42;31.55;;;15.50;;
61617;SDS011;47518;51.776;9.370;2023-01-29T09:28:08;23.50;;;12.82;;
61617;SDS011;47518;51.776;9.370;2023-01-29T09:30:33;27.85;;;14.57;;
61617;SDS011;47518;51.776;9.370;2023-01-29T09:33:01;26.25;;;14.55;;
61617;SDS011;47518;51.776;9.370;2023-01-29T09:35:27;27.85;;;14.45;;
61617;SDS011;47518;51.776;9.370;2023-01-29T09:37:52;28.58;;;15.25;;
61617;SDS011;47518;51.776;9.370;2023-01-29T09:40:26;28.55;;;14.68;;
61617;SDS011;47518;51.776;9.370;2023-01-29T09:43:01;30.35;;;15.20;;
61617;SDS011;47518;51.776;9.370;2023-01-29T09:45:30;26.48;;;14.43;;
61617;SDS011;47518;51.776;9.370;2023-01-29T09:47:58;26.48;;;14.32;;
61617;SDS011;47518;51.776;9.370;2023-01-29T09:50:28;29.17;;;15.35;;
61617;SDS011;47518;51.776;9.370;2023-01-29T09:53:04;25.27;;;13.82;;
61617;SDS011;47518;51.776;9.370;2023-01-29T09:55:56;28.02;;;14.98;;
61617;SDS011;47518;51.776;9.370;2023-01-29T09:58:29;28.23;;;14.77;;
61617;SDS011;47518;51.776;9.370;2023-01-29T10:01:04;25.00;;;14.20;;
61617;SDS011;47518;51.776;9.370;2023-01-29T10:14:15;26.38;;;14.95;;
61617;SDS011;47518;51.776;9.370;2023-01-29T10:30:27;24.15;;;14.30;;
61617;SDS011;47518;51.776;9.370;2023-01-29T10:32:57;24.83;;;14.43;;
61617;SDS011;47518;51.776;9.370;2023-01-29T10:35:30;25.23;;;13.30;;
61617;SDS011;47518;51.776;9.370;2023-01-29T10:38:05;27.95;;;14.00;;
61617;SDS011;47518;51.776;9.370;2023-01-29T10:40:49;26.00;;;13.90;;
61617;SDS011;47518;51.776;9.370;2023-01-29T11:09:38;24.92;;;14.65;;
61617;SDS011;47518;51.776;9.370;2023-01-29T11:12:10;24.73;;;14.15;;
61617;SDS011;47518;51.776;9.370;2023-01-29T11:17:22;25.48;;;13.73;;
61617;SDS011;47518;51.776;9.370;2023-01-29T11:19:48;23.40;;;13.68;;
61617;SDS011;47518;51.776;9.370;2023-01-29T11:22:16;22.27;;;13.90;;
61617;SDS011;47518;51.776;9.370;2023-01-29T11:24:44;28.08;;;14.00;;
61617;SDS011;47518;51.776;9.370;2023-01-29T11:27:26;24.05;;;13.98;;
61617;SDS011;47518;51.776;9.370;2023-01-29T11:29:53;22.92;;;13.48;;
61617;SDS011;47518;51.776;9.370;2023-01-29T11:37:43;20.65;;;12.15;;
61617;SDS011;47518;51.776;9.370;2023-01-29T11:53:35;19.95;;;12.18;;
61617;SDS011;47518;51.776;9.370;2023-01-29T11:56:05;20.95;;;12.23;;
61617;SDS011;47518;51.776;9.370;2023-01-29T11:58:41;20.90;;;12.45;;
61617;SDS011;47518;51.776;9.370;2023-01-29T12:01:07;21.98;;;12.65;;
61617;SDS011;47518;51.776;9.370;2023-01-29T12:03:35;20.05;;;11.98;;
61617;SDS011;47518;51.776;9.370;2023-01-29T12:06:06;24.48;;;12.90;;
61617;SDS011;47518;51.776;9.370;2023-01-29T12:08:40;22.38;;;12.52;;
61617;SDS011;47518;51.776;9.370;2023-01-29T12:11:14;23.48;;;12.90;;
61617;SDS011;47518;51.776;9.370;2023-01-29T12:13:54;23.80;;;11.90;;
61617;SDS011;47518;51.776;9.370;2023-01-29T12:29:35;20.80;;;11.57;;
61617;SDS011;47518;51.776;9.370;2023-01-29T12:32:10;17.98;;;11.18;;
61617;SDS011;47518;51.776;9.370;2023-01-29T12:34:49;18.90;;;11.73;;
61617;SDS011;47518;51.776;9.370;2023-01-29T12:37:21;18.30;;;11.02;;
61617;SDS011;47518;51.776;9.370;2023-01-29T12:39:52;18.33;;;11.40;;
61617;SDS011;47518;51.776;9.370;2023-01-29T12:42:20;22.08;;;12.05;;
61617;SDS011;47518;51.776;9.370;2023-01-29T12:44:49;18.23;;;11.55;;
61617;SDS011;47518;51.776;9.370;2023-01-29T12:47:21;17.13;;;11.35;;
61617;SDS011;47518;51.776;9.370;2023-01-29T12:49:54;19.83;;;11.82;;
61617;SDS011;47518;51.776;9.370;2023-01-29T12:52:27;18.75;;;11.65;;
61617;SDS011;47518;51.776;9.370;2023-01-29T12:55:02;16.08;;;10.25;;
61617;SDS011;47518;51.776;9.370;2023-01-29T12:57:38;20.15;;;11.32;;
61617;SDS011;47518;51.776;9.370;2023-01-29T13:00:35;18.63;;;11.05;;
61617;SDS011;47518;51.776;9.370;2023-01-29T13:03:07;17.67;;;10.90;;
61617;SDS011;47518;51.776;9.370;2023-01-29T13:05:51;20.42;;;11.48;;
61617;SDS011;47518;51.776;9.370;2023-01-29T13:08:23;18.85;;;11.20;;
61617;SDS011;47518;51.776;9.370;2023-01-29T13:10:53;18.55;;;11.32;;
61617;SDS011;47518;51.776;9.370;2023-01-29T13:26:29;16.00;;;10.02;;
61617;SDS011;47518;51.776;9.370;2023-01-29T13:28:55;19.85;;;11.07;;
61617;SDS011;47518;51.776;9.370;2023-01-29T13:31:37;16.95;;;10.48;;
61617;SDS011;47518;51.776;9.370;2023-01-29T13:36:53;16.27;;;10.52;;
61617;SDS011;47518;51.776;9.370;2023-01-29T14:11:41;18.98;;;11.55;;
61617;SDS011;47518;51.776;9.370;2023-01-29T14:17:15;19.10;;;11.63;;
61617;SDS011;47518;51.776;9.370;2023-01-29T14:19:45;21.55;;;11.30;;
61617;SDS011;47518;51.776;9.370;2023-01-29T14:22:22;18.70;;;11.35;;
61617;SDS011;47518;51.776;9.370;2023-01-29T14:25:06;18.25;;;11.60;;
61617;SDS011;47518;51.776;9.370;2023-01-29T14:27:40;19.92;;;11.45;;
61617;SDS011;47518;51.776;9.370;2023-01-29T14:30:12;23.63;;;12.82;;
61617;SDS011;47518;51.776;9.370;2023-01-29T14:32:41;20.83;;;12.30;;
61617;SDS011;47518;51.776;9.370;2023-01-29T14:35:28;20.42;;;12.02;;
61617;SDS011;47518;51.776;9.370;2023-01-29T14:37:58;22.70;;;13.45;;
61617;SDS011;47518;51.776;9.370;2023-01-29T14:40:27;23.10;;;12.63;;
61617;SDS011;47518;51.776;9.370;2023-01-29T14:45:44;20.20;;;11.20;;
61617;SDS011;47518;51.776;9.370;2023-01-29T15:01:25;19.10;;;10.98;;
61617;SDS011;47518;51.776;9.370;2023-01-29T15:03:58;22.73;;;12.48;;
61617;SDS011;47518;51.776;9.370;2023-01-29T15:30:14;19.90;;;12.15;;
61617;SDS011;47518;51.776;9.370;2023-01-29T15:32:41;20.65;;;11.82;;
61617;SDS011;47518;51.776;9.370;2023-01-29T15:35:08;21.63;;;11.93;;
61617;SDS011;47518;51.776;9.370;2023-01-29T15:37:39;19.75;;;11.93;;
61617;SDS011;47518;51.776;9.370;2023-01-29T15:40:05;20.77;;;12.35;;
61617;SDS011;47518;51.776;9.370;2023-01-29T15:42:43;19.63;;;12.20;;
61617;SDS011;47518;51.776;9.370;2023-01-29T15:48:00;22.40;;;12.27;;
61617;SDS011;47518;51.776;9.370;2023-01-29T15:50:38;19.23;;;12.27;;
61617;SDS011;47518;51.776;9.370;2023-01-29T15:53:06;24.48;;;13.80;;
61617;SDS011;47518;51.776;9.370;2023-01-29T15:55:38;21.60;;;12.73;;
61617;SDS011;47518;51.776;9.370;2023-01-29T15:58:04;24.42;;;13.70;;
61617;SDS011;47518;51.776;9.370;2023-01-29T16:00:31;22.15;;;13.30;;
61617;SDS011;47518;51.776;9.370;2023-01-29T16:02:57;23.77;;;14.35;;
61617;SDS011;47518;51.776;9.370;2023-01-29T16:05:27;21.60;;;13.02;;
61617;SDS011;47518;51.776;9.370;2023-01-29T16:07:54;22.05;;;13.27;;
61617;SDS011;47518;51.776;9.370;2023-01-29T16:10:23;25.80;;;14.70;;
61617;SDS011;47518;51.776;9.370;2023-01-29T16:12:50;21.92;;;13.60;;
61617;SDS011;47518;51.776;9.370;2023-01-29T16:15:26;24.85;;;14.95;;
61617;SDS011;47518;51.776;9.370;2023-01-29T16:18:01;21.98;;;13.35;;
61617;SDS011;47518;51.776;9.370;2023-01-29T16:20:43;20.92;;;12.90;;
61617;SDS011;47518;51.776;9.370;2023-01-29T16:23:27;24.27;;;14.00;;
61617;SDS011;47518;51.776;9.370;2023-01-29T16:25:55;25.90;;;15.48;;
61617;SDS011;47518;51.776;9.370;2023-01-29T16:28:26;28.65;;;16.00;;
61617;SDS011;47518;51.776;9.370;2023-01-29T16:30:54;24.52;;;14.10;;
61617;SDS011;47518;51.776;9.370;2023-01-29T16:33:22;25.55;;;14.45;;
61617;SDS011;47518;51.776;9.370;2023-01-29T16:35:56;26.75;;;15.50;;
61617;SDS011;47518;51.776;9.370;2023-01-29T16:38:25;25.45;;;14.60;;
61617;SDS011;47518;51.776;9.370;2023-01-29T16:43:52;28.38;;;14.32;;
61617;SDS011;47518;51.776;9.370;2023-01-29T17:02:33;31.80;;;17.16;;
61617;SDS011;47518;51.776;9.370;2023-01-29T17:05:03;26.00;;;14.07;;
61617;SDS011;47518;51.776;9.370;2023-01-29T17:07:32;29.85;;;16.50;;
61617;SDS011;47518;51.776;9.370;2023-01-29T17:10:00;25.67;;;14.38;;
61617;SDS011;47518;51.776;9.370;2023-01-29T17:12:29;26.85;;;13.88;;
61617;SDS011;47518;51.776;9.370;2023-01-29T17:14:57;26.55;;;14.10;;
61617;SDS011;47518;51.776;9.370;2023-01-29T17:17:32;22.35;;;12.98;;
61617;SDS011;47518;51.776;9.370;2023-01-29T17:20:07;24.33;;;13.07;;
61617;SDS011;47518;51.776;9.370;2023-01-29T17:22:37;22.98;;;13.40;;
61617;SDS011;47518;51.776;9.370;2023-01-29T17:25:03;23.42;;;13.73;;
61617;SDS011;47518;51.776;9.370;2023-01-29T17:27:29;27.73;;;14.90;;
61617;SDS011;47518;51.776;9.370;2023-01-29T17:29:54;26.08;;;15.05;;
61617;SDS011;47518;51.776;9.370;2023-01-29T17:32:19;27.65;;;15.85;;
61617;SDS011;47518;51.776;9.370;2023-01-29T17:34:45;26.73;;;15.95;;
61617;SDS011;47518;51.776;9.370;2023-01-29T17:37:12;27.75;;;14.98;;
61617;SDS011;47518;51.776;9.370;2023-01-29T17:39:39;25.08;;;15.05;;
61617;SDS011;47518;51.776;9.370;2023-01-29T17:42:05;29.38;;;15.80;;
61617;SDS011;47518;51.776;9.370;2023-01-29T17:44:34;28.90;;;16.80;;
61617;SDS011;47518;51.776;9.370;2023-01-29T17:47:00;24.38;;;13.82;;
61617;SDS011;47518;51.776;9.370;2023-01-29T17:49:27;20.92;;;12.20;;
61617;SDS011;47518;51.776;9.370;2023-01-29T17:51:56;24.98;;;12.85;;
61617;SDS011;47518;51.776;9.370;2023-01-29T17:54:26;22.52;;;12.98;;
61617;SDS011;47518;51.776;9.370;2023-01-29T17:56:52;24.35;;;14.63;;
61617;SDS011;47518;51.776;9.370;2023-01-29T17:59:18;22.83;;;12.88;;
61617;SDS011;47518;51.776;9.370;2023-01-29T18:01:45;24.88;;;13.43;;
61617;SDS011;47518;51.776;9.370;2023-01-29T18:04:12;26.45;;;13.95;;
61617;SDS011;47518;51.776;9.370;2023-01-29T18:06:41;24.38;;;13.27;;
61617;SDS011;47518;51.776;9.370;2023-01-29T18:09:12;21.98;;;12.32;;
61617;SDS011;47518;51.776;9.370;2023-01-29T18:11:39;25.13;;;13.27;;
61617;SDS011;47518;51.776;9.370;2023-01-29T18:14:06;25.52;;;14.20;;
61617;SDS011;47518;51.776;9.370;2023-01-29T18:16:32;27.70;;;14.02;;
61617;SDS011;47518;51.776;9.370;2023-01-29T18:19:01;25.17;;;13.60;;
61617;SDS011;47518;51.776;9.370;2023-01-29T18:21:36;23.13;;;13.40;;
61617;SDS011;47518;51.776;9.370;2023-01-29T18:24:01;23.98;;;12.88;;
61617;SDS011;47518;51.776;9.370;2023-01-29T18:26:27;24.40;;;14.18;;
61617;SDS011;47518;51.776;9.370;2023-01-29T18:28:52;26.83;;;14.25;;
61617;SDS011;47518;51.776;9.370;2023-01-29T18:31:17;20.13;;;12.20;;
61617;SDS011;47518;51.776;9.370;2023-01-29T18:33:42;22.23;;;12.02;;
61617;SDS011;47518;51.776;9.370;2023-01-29T18:36:11;20.35;;;12.55;;
61617;SDS011;47518;51.776;9.370;2023-01-29T18:38:38;21.52;;;12.80;;
61617;SDS011;47518;51.776;9.370;2023-01-29T18:41:04;18.73;;;11.13;;
61617;SDS011;47518;51.776;9.370;2023-01-29T18:43:30;20.77;;;11.50;;
61617;SDS011;47518;51.776;9.370;2023-01-29T18:45:56;18.70;;;10.85;;
61617;SDS011;47518;51.776;9.370;2023-01-29T18:48:22;14.48;;;8.88;;
61617;SDS011;47518;51.776;9.370;2023-01-29T18:50:48;21.25;;;11.82;;
61617;SDS011;47518;51.776;9.370;2023-01-29T18:53:14;19.02;;;10.93;;
61617;SDS011;47518;51.776;9.370;2023-01-29T18:55:39;17.08;;;9.95;;
61617;SDS011;47518;51.776;9.370;2023-01-29T18:58:05;18.70;;;10.48;;
61617;SDS011;47518;51.776;9.370;2023-01-29T19:00:30;17.88;;;10.82;;
61617;SDS011;47518;51.776;9.370;2023-01-29T19:02:55;18.50;;;10.90;;
61617;SDS011;47518;51.776;9.370;2023-01-29T19:05:21;19.52;;;12.05;;
61617;SDS011;47518;51.776;9.370;2023-01-29T19:07:56;18.90;;;11.35;;
61617;SDS011;47518;51.776;9.370;2023-01-29T19:10:31;20.00;;;11.63;;
61617;SDS011;47518;51.776;9.370;2023-01-29T19:12:57;19.08;;;11.27;;
61617;SDS011;47518;51.776;9.370;2023-01-29T19:15:26;24.45;;;13.93;;
61617;SDS011;47518;51.776;9.370;2023-01-29T19:17:53;23.13;;;12.90;;
61617;SDS011;47518;51.776;9.370;2023-01-29T19:20:18;22.67;;;13.02;;
61617;SDS011;47518;51.776;9.370;2023-01-29T19:22:44;23.58;;;13.85;;
61617;SDS011;47518;51.776;9.370;2023-01-29T19:25:10;26.17;;;14.77;;
61617;SDS011;47518;51.776;9.370;2023-01-29T19:27:36;26.00;;;14.00;;
61617;SDS011;47518;51.776;9.370;2023-01-29T19:30:05;26.67;;;13.88;;
61617;SDS011;47518;51.776;9.370;2023-01-29T19:32:32;26.08;;;13.70;;
61617;SDS011;47518;51.776;9.370;2023-01-29T19:34:58;25.58;;;13.85;;
61617;SDS011;47518;51.776;9.370;2023-01-29T19:37:24;28.92;;;14.82;;